sensor_id;sensor_type;location;lat;lon;timestamp;temperature;humidity
31369;DHT22;18004;48.416;10.066;2023-12-20T00:01:33;4.20;99.90
31369;DHT22;18004;48.416;10.066;2023-12-20T00:03:58;4.20;99.90
31369;DHT22;18004;48.416;10.066;2023-12-20T00:06:24;4.20;99.90
31369;DHT22;18004;48.416;10.066;2023-12-20T00:08:50;4.20;99.90
31369;DHT22;18004;48.416;10.066;2023-12-20T00:11:16;4.30;99.90
31369;DHT22;18004;48.416;10.066;2023-12-20T00:13:41;4.30;99.90
31369;DHT22;18004;48.416;10.066;2023-12-20T00:16:07;4.30;99.90
31369;DHT22;18004;48.416;10.066;2023-12-20T00:18:33;4.30;99.90
31369;DHT22;18004;48.416;10.066;2023-12-20T00:20:58;4.30;99.90
31369;DHT22;18004;48.416;10.066;2023-12-20T00:23:24;4.30;99.90
31369;DHT22;18004;48.416;10.066;2023-12-20T00:25:50;4.30;99.90
31369;DHT22;18004;48.416;10.066;2023-12-20T00:28:16;4.30;99.90
31369;DHT22;18004;48.416;10.066;2023-12-20T00:30:41;4.40;99.90
31369;DHT22;18004;48.416;10.066;2023-12-20T00:33:07;4.40;99.90
31369;DHT22;18004;48.416;10.066;2023-12-20T00:35:33;4.40;99.90
31369;DHT22;18004;48.416;10.066;2023-12-20T00:37:59;4.40;99.90
31369;DHT22;18004;48.416;10.066;2023-12-20T00:40:25;4.40;99.90
31369;DHT22;18004;48.416;10.066;2023-12-20T00:42:50;4.40;99.90
31369;DHT22;18004;48.416;10.066;2023-12-20T00:45:16;4.40;99.90
31369;DHT22;18004;48.416;10.066;2023-12-20T00:47:42;4.40;99.90
31369;DHT22;18004;48.416;10.066;2023-12-20T00:50:08;4.40;99.90
31369;DHT22;18004;48.416;10.066;2023-12-20T00:52:34;4.40;99.90
31369;DHT22;18004;48.416;10.066;2023-12-20T00:55:00;4.40;99.90
31369;DHT22;18004;48.416;10.066;2023-12-20T00:57:26;4.40;99.90
31369;DHT22;18004;48.416;10.066;2023-12-20T00:59:52;4.40;99.90
31369;DHT22;18004;48.416;10.066;2023-12-20T01:02:17;4.40;99.90
31369;DHT22;18004;48.416;10.066;2023-12-20T01:04:43;4.40;99.90
31369;DHT22;18004;48.416;10.066;2023-12-20T01:07:09;4.40;99.90
31369;DHT22;18004;48.416;10.066;2023-12-20T01:09:34;4.40;99.90
31369;DHT22;18004;48.416;10.066;2023-12-20T01:12:00;4.40;99.90
31369;DHT22;18004;48.416;10.066;2023-12-20T01:14:26;4.30;99.90
31369;DHT22;18004;48.416;10.066;2023-12-20T01:16:52;4.40;99.90
31369;DHT22;18004;48.416;10.066;2023-12-20T01:19:17;4.40;99.90
31369;DHT22;18004;48.416;10.066;2023-12-20T01:21:43;4.30;99.90
31369;DHT22;18004;48.416;10.066;2023-12-20T01:24:09;4.30;99.90
31369;DHT22;18004;48.416;10.066;2023-12-20T01:26:35;4.30;99.90
31369;DHT22;18004;48.416;10.066;2023-12-20T01:29:01;4.30;99.90
31369;DHT22;18004;48.416;10.066;2023-12-20T01:31:27;4.30;99.90
31369;DHT22;18004;48.416;10.066;2023-12-20T01:33:53;4.40;99.90
31369;DHT22;18004;48.416;10.066;2023-12-20T01:36:18;4.30;99.90
31369;DHT22;18004;48.416;10.066;2023-12-20T01:38:45;4.30;99.90
31369;DHT22;18004;48.416;10.066;2023-12-20T01:41:11;4.30;99.90
31369;DHT22;18004;48.416;10.066;2023-12-20T01:43:36;4.30;99.90
31369;DHT22;18004;48.416;10.066;2023-12-20T01:46:02;4.40;99.90
31369;DHT22;18004;48.416;10.066;2023-12-20T01:48:29;4.40;99.90
31369;DHT22;18004;48.416;10.066;2023-12-20T01:50:57;4.40;99.90
31369;DHT22;18004;48.416;10.066;2023-12-20T01:53:25;4.40;99.90
31369;DHT22;18004;48.416;10.066;2023-12-20T01:55:52;4.40;99.90
31369;DHT22;18004;48.416;10.066;2023-12-20T01:58:20;4.40;99.90
31369;DHT22;18004;48.416;10.066;2023-12-20T02:00:46;4.40;99.90
31369;DHT22;18004;48.416;10.066;2023-12-20T02:03:12;4.40;99.90
31369;DHT22;18004;48.416;10.066;2023-12-20T02:05:39;4.40;99.90
31369;DHT22;18004;48.416;10.066;2023-12-20T02:08:04;4.30;99.90
31369;DHT22;18004;48.416;10.066;2023-12-20T02:10:31;4.30;99.90
31369;DHT22;18004;48.416;10.066;2023-12-20T02:12:57;4.30;99.90
31369;DHT22;18004;48.416;10.066;2023-12-20T02:15:23;4.30;99.90
31369;DHT22;18004;48.416;10.066;2023-12-20T02:17:49;4.30;99.90
31369;DHT22;18004;48.416;10.066;2023-12-20T02:20:15;4.30;99.90
31369;DHT22;18004;48.416;10.066;2023-12-20T02:22:41;4.30;99.90
31369;DHT22;18004;48.416;10.066;2023-12-20T02:25:06;4.30;99.90
31369;DHT22;18004;48.416;10.066;2023-12-20T02:27:32;4.30;99.90
31369;DHT22;18004;48.416;10.066;2023-12-20T02:29:58;4.30;99.90
31369;DHT22;18004;48.416;10.066;2023-12-20T02:32:25;4.30;99.90
31369;DHT22;18004;48.416;10.066;2023-12-20T02:34:55;4.30;99.90
31369;DHT22;18004;48.416;10.066;2023-12-20T02:37:21;4.20;99.90
31369;DHT22;18004;48.416;10.066;2023-12-20T02:39:47;4.20;99.90
31369;DHT22;18004;48.416;10.066;2023-12-20T02:42:13;4.20;99.90
31369;DHT22;18004;48.416;10.066;2023-12-20T02:44:39;4.20;99.90
31369;DHT22;18004;48.416;10.066;2023-12-20T02:47:04;4.20;99.90
31369;DHT22;18004;48.416;10.066;2023-12-20T02:49:30;4.20;99.90
31369;DHT22;18004;48.416;10.066;2023-12-20T02:51:56;4.20;99.90
31369;DHT22;18004;48.416;10.066;2023-12-20T02:54:22;4.20;99.90
31369;DHT22;18004;48.416;10.066;2023-12-20T02:56:48;4.20;99.90
31369;DHT22;18004;48.416;10.066;2023-12-20T02:59:14;4.20;99.90
31369;DHT22;18004;48.416;10.066;2023-12-20T03:01:45;4.20;99.90
31369;DHT22;18004;48.416;10.066;2023-12-20T03:04:11;4.20;99.90
31369;DHT22;18004;48.416;10.066;2023-12-20T03:06:37;4.20;99.90
31369;DHT22;18004;48.416;10.066;2023-12-20T03:09:03;4.20;99.90
31369;DHT22;18004;48.416;10.066;2023-12-20T03:11:29;4.20;99.90
31369;DHT22;18004;48.416;10.066;2023-12-20T03:13:56;4.20;99.90
31369;DHT22;18004;48.416;10.066;2023-12-20T03:16:21;4.20;99.90
31369;DHT22;18004;48.416;10.066;2023-12-20T03:18:47;4.20;99.90
31369;DHT22;18004;48.416;10.066;2023-12-20T03:21:13;4.20;99.90
31369;DHT22;18004;48.416;10.066;2023-12-20T03:23:39;4.20;99.90
31369;DHT22;18004;48.416;10.066;2023-12-20T03:26:08;4.20;99.90
31369;DHT22;18004;48.416;10.066;2023-12-20T03:28:37;4.20;99.90
31369;DHT22;18004;48.416;10.066;2023-12-20T03:31:03;4.20;99.90
31369;DHT22;18004;48.416;10.066;2023-12-20T03:33:29;4.20;99.90
31369;DHT22;18004;48.416;10.066;2023-12-20T03:35:55;4.20;99.90
31369;DHT22;18004;48.416;10.066;2023-12-20T03:38:21;4.20;99.90
31369;DHT22;18004;48.416;10.066;2023-12-20T03:40:49;4.20;99.90
31369;DHT22;18004;48.416;10.066;2023-12-20T03:43:15;4.20;99.90
31369;DHT22;18004;48.416;10.066;2023-12-20T03:45:42;4.20;99.90
31369;DHT22;18004;48.416;10.066;2023-12-20T03:48:08;4.20;99.90
31369;DHT22;18004;48.416;10.066;2023-12-20T03:50:34;4.20;99.90
31369;DHT22;18004;48.416;10.066;2023-12-20T03:53:00;4.20;99.90
31369;DHT22;18004;48.416;10.066;2023-12-20T03:55:26;4.20;99.90
31369;DHT22;18004;48.416;10.066;2023-12-20T03:57:52;4.20;99.90
31369;DHT22;18004;48.416;10.066;2023-12-20T04:00:18;4.20;99.90
31369;DHT22;18004;48.416;10.066;2023-12-20T04:02:43;4.20;99.90
31369;DHT22;18004;48.416;10.066;2023-12-20T04:05:10;4.20;99.90
31369;DHT22;18004;48.416;10.066;2023-12-20T04:07:36;4.10;99.90
31369;DHT22;18004;48.416;10.066;2023-12-20T04:10:02;4.20;99.90
31369;DHT22;18004;48.416;10.066;2023-12-20T04:12:29;4.10;99.90
31369;DHT22;18004;48.416;10.066;2023-12-20T04:14:55;4.10;99.90
31369;DHT22;18004;48.416;10.066;2023-12-20T04:17:21;4.20;99.90
31369;DHT22;18004;48.416;10.066;2023-12-20T04:19:51;4.20;99.90
31369;DHT22;18004;48.416;10.066;2023-12-20T04:22:17;4.20;99.90
31369;DHT22;18004;48.416;10.066;2023-12-20T04:24:43;4.20;99.90
31369;DHT22;18004;48.416;10.066;2023-12-20T04:27:09;4.20;99.90
31369;DHT22;18004;48.416;10.066;2023-12-20T04:29:35;4.20;99.90
31369;DHT22;18004;48.416;10.066;2023-12-20T04:32:01;4.20;99.90
31369;DHT22;18004;48.416;10.066;2023-12-20T04:34:26;4.20;99.90
31369;DHT22;18004;48.416;10.066;2023-12-20T04:36:52;4.20;99.90
31369;DHT22;18004;48.416;10.066;2023-12-20T04:39:18;4.20;99.90
31369;DHT22;18004;48.416;10.066;2023-12-20T04:41:44;4.20;99.90
31369;DHT22;18004;48.416;10.066;2023-12-20T04:44:10;4.20;99.90
31369;DHT22;18004;48.416;10.066;2023-12-20T04:46:35;4.20;99.90
31369;DHT22;18004;48.416;10.066;2023-12-20T04:49:02;4.20;99.90
31369;DHT22;18004;48.416;10.066;2023-12-20T04:51:27;4.20;99.90
31369;DHT22;18004;48.416;10.066;2023-12-20T04:53:53;4.20;99.90
31369;DHT22;18004;48.416;10.066;2023-12-20T04:56:19;4.30;99.90
31369;DHT22;18004;48.416;10.066;2023-12-20T04:58:45;4.20;99.90
31369;DHT22;18004;48.416;10.066;2023-12-20T05:01:11;4.20;99.90
31369;DHT22;18004;48.416;10.066;2023-12-20T05:03:37;4.20;99.90
31369;DHT22;18004;48.416;10.066;2023-12-20T05:06:03;4.20;99.90
31369;DHT22;18004;48.416;10.066;2023-12-20T05:08:29;4.30;99.90
31369;DHT22;18004;48.416;10.066;2023-12-20T05:10:55;4.20;99.90
31369;DHT22;18004;48.416;10.066;2023-12-20T05:13:21;4.30;99.90
31369;DHT22;18004;48.416;10.066;2023-12-20T05:15:47;4.30;99.90
31369;DHT22;18004;48.416;10.066;2023-12-20T05:18:13;4.30;99.90
31369;DHT22;18004;48.416;10.066;2023-12-20T05:20:39;4.30;99.90
31369;DHT22;18004;48.416;10.066;2023-12-20T05:23:06;4.30;99.90
31369;DHT22;18004;48.416;10.066;2023-12-20T05:25:32;4.30;99.90
31369;DHT22;18004;48.416;10.066;2023-12-20T05:27:57;4.30;99.90
31369;DHT22;18004;48.416;10.066;2023-12-20T05:30:23;4.30;99.90
31369;DHT22;18004;48.416;10.066;2023-12-20T05:32:49;4.30;99.90
31369;DHT22;18004;48.416;10.066;2023-12-20T05:35:15;4.30;99.90
31369;DHT22;18004;48.416;10.066;2023-12-20T05:37:41;4.30;99.90
31369;DHT22;18004;48.416;10.066;2023-12-20T05:40:07;4.30;99.90
31369;DHT22;18004;48.416;10.066;2023-12-20T05:42:37;4.30;99.90
31369;DHT22;18004;48.416;10.066;2023-12-20T05:45:04;4.30;99.90
31369;DHT22;18004;48.416;10.066;2023-12-20T05:47:30;4.30;99.90
31369;DHT22;18004;48.416;10.066;2023-12-20T05:49:56;4.30;99.90
31369;DHT22;18004;48.416;10.066;2023-12-20T05:52:22;4.30;99.90
31369;DHT22;18004;48.416;10.066;2023-12-20T05:54:48;4.30;99.90
31369;DHT22;18004;48.416;10.066;2023-12-20T05:57:14;4.30;99.90
31369;DHT22;18004;48.416;10.066;2023-12-20T05:59:39;4.30;99.90
31369;DHT22;18004;48.416;10.066;2023-12-20T06:02:05;4.30;99.90
31369;DHT22;18004;48.416;10.066;2023-12-20T06:04:32;4.30;99.90
31369;DHT22;18004;48.416;10.066;2023-12-20T06:06:57;4.40;99.90
31369;DHT22;18004;48.416;10.066;2023-12-20T06:09:23;4.40;99.90
31369;DHT22;18004;48.416;10.066;2023-12-20T06:11:49;4.40;99.90
31369;DHT22;18004;48.416;10.066;2023-12-20T06:14:16;4.40;99.90
31369;DHT22;18004;48.416;10.066;2023-12-20T06:16:42;4.40;99.90
31369;DHT22;18004;48.416;10.066;2023-12-20T06:19:08;4.40;99.90
31369;DHT22;18004;48.416;10.066;2023-12-20T06:21:34;4.40;99.90
31369;DHT22;18004;48.416;10.066;2023-12-20T06:24:00;4.40;99.90
31369;DHT22;18004;48.416;10.066;2023-12-20T06:26:25;4.40;99.90
31369;DHT22;18004;48.416;10.066;2023-12-20T06:28:51;4.40;99.90
31369;DHT22;18004;48.416;10.066;2023-12-20T06:31:17;4.40;99.90
31369;DHT22;18004;48.416;10.066;2023-12-20T06:33:43;4.40;99.90
31369;DHT22;18004;48.416;10.066;2023-12-20T06:36:13;4.40;99.90
31369;DHT22;18004;48.416;10.066;2023-12-20T06:38:39;4.40;99.90
31369;DHT22;18004;48.416;10.066;2023-12-20T06:41:06;4.40;99.90
31369;DHT22;18004;48.416;10.066;2023-12-20T06:43:31;4.40;99.90
31369;DHT22;18004;48.416;10.066;2023-12-20T06:46:00;4.40;99.90
31369;DHT22;18004;48.416;10.066;2023-12-20T06:48:26;4.40;99.90
31369;DHT22;18004;48.416;10.066;2023-12-20T06:50:52;4.40;99.90
31369;DHT22;18004;48.416;10.066;2023-12-20T06:53:18;4.40;99.90
31369;DHT22;18004;48.416;10.066;2023-12-20T06:55:44;4.40;99.90
31369;DHT22;18004;48.416;10.066;2023-12-20T06:58:09;4.40;99.90
31369;DHT22;18004;48.416;10.066;2023-12-20T07:00:35;4.40;99.90
31369;DHT22;18004;48.416;10.066;2023-12-20T07:03:01;4.40;99.90
31369;DHT22;18004;48.416;10.066;2023-12-20T07:05:27;4.40;99.90
31369;DHT22;18004;48.416;10.066;2023-12-20T07:07:53;4.40;99.90
31369;DHT22;18004;48.416;10.066;2023-12-20T07:10:19;4.40;99.90
31369;DHT22;18004;48.416;10.066;2023-12-20T07:12:45;4.40;99.90
31369;DHT22;18004;48.416;10.066;2023-12-20T07:15:11;4.40;99.90
31369;DHT22;18004;48.416;10.066;2023-12-20T07:17:37;4.40;99.90
31369;DHT22;18004;48.416;10.066;2023-12-20T07:20:03;4.40;99.90
31369;DHT22;18004;48.416;10.066;2023-12-20T07:22:30;4.40;99.90
31369;DHT22;18004;48.416;10.066;2023-12-20T07:24:59;4.40;99.90
31369;DHT22;18004;48.416;10.066;2023-12-20T07:27:26;4.40;99.90
31369;DHT22;18004;48.416;10.066;2023-12-20T07:29:52;4.40;99.90
31369;DHT22;18004;48.416;10.066;2023-12-20T07:32:18;4.40;99.90
31369;DHT22;18004;48.416;10.066;2023-12-20T07:34:44;4.40;99.90
31369;DHT22;18004;48.416;10.066;2023-12-20T07:37:10;4.40;99.90
31369;DHT22;18004;48.416;10.066;2023-12-20T07:39:40;4.40;99.90
31369;DHT22;18004;48.416;10.066;2023-12-20T07:42:07;4.40;99.90
31369;DHT22;18004;48.416;10.066;2023-12-20T07:44:33;4.40;99.90
31369;DHT22;18004;48.416;10.066;2023-12-20T07:46:59;4.40;99.90
31369;DHT22;18004;48.416;10.066;2023-12-20T07:49:25;4.40;99.90
31369;DHT22;18004;48.416;10.066;2023-12-20T07:51:50;4.40;99.90
31369;DHT22;18004;48.416;10.066;2023-12-20T07:54:16;4.40;99.90
31369;DHT22;18004;48.416;10.066;2023-12-20T07:56:42;4.40;99.90
31369;DHT22;18004;48.416;10.066;2023-12-20T07:59:09;4.40;99.90
31369;DHT22;18004;48.416;10.066;2023-12-20T08:01:35;4.50;99.90
31369;DHT22;18004;48.416;10.066;2023-12-20T08:04:01;4.40;99.90
31369;DHT22;18004;48.416;10.066;2023-12-20T08:06:27;4.40;99.90
31369;DHT22;18004;48.416;10.066;2023-12-20T08:08:53;4.40;99.90
31369;DHT22;18004;48.416;10.066;2023-12-20T08:11:19;4.50;99.90
31369;DHT22;18004;48.416;10.066;2023-12-20T08:13:45;4.50;99.90
31369;DHT22;18004;48.416;10.066;2023-12-20T08:16:11;4.50;99.90
31369;DHT22;18004;48.416;10.066;2023-12-20T08:18:39;4.50;99.90
31369;DHT22;18004;48.416;10.066;2023-12-20T08:21:06;4.50;99.90
31369;DHT22;18004;48.416;10.066;2023-12-20T08:23:34;4.60;99.90
31369;DHT22;18004;48.416;10.066;2023-12-20T08:26:04;4.60;99.90
31369;DHT22;18004;48.416;10.066;2023-12-20T08:28:30;4.60;99.90
31369;DHT22;18004;48.416;10.066;2023-12-20T08:30:57;4.60;99.90
31369;DHT22;18004;48.416;10.066;2023-12-20T08:33:22;4.60;99.90
31369;DHT22;18004;48.416;10.066;2023-12-20T08:35:48;4.60;99.90
31369;DHT22;18004;48.416;10.066;2023-12-20T08:38:14;4.60;99.90
31369;DHT22;18004;48.416;10.066;2023-12-20T08:40:40;4.60;99.90
31369;DHT22;18004;48.416;10.066;2023-12-20T08:43:07;4.60;99.90
31369;DHT22;18004;48.416;10.066;2023-12-20T08:45:32;4.70;99.90
31369;DHT22;18004;48.416;10.066;2023-12-20T08:47:58;4.70;99.90
31369;DHT22;18004;48.416;10.066;2023-12-20T08:50:25;4.70;99.90
31369;DHT22;18004;48.416;10.066;2023-12-20T08:52:51;4.80;99.90
31369;DHT22;18004;48.416;10.066;2023-12-20T08:55:17;4.80;99.90
31369;DHT22;18004;48.416;10.066;2023-12-20T08:57:44;4.80;99.90
31369;DHT22;18004;48.416;10.066;2023-12-20T09:00:10;4.90;99.90
31369;DHT22;18004;48.416;10.066;2023-12-20T09:02:36;4.90;99.90
31369;DHT22;18004;48.416;10.066;2023-12-20T09:05:03;4.90;99.90
31369;DHT22;18004;48.416;10.066;2023-12-20T09:07:29;4.90;99.90
31369;DHT22;18004;48.416;10.066;2023-12-20T09:09:58;4.90;99.90
31369;DHT22;18004;48.416;10.066;2023-12-20T09:12:25;4.90;99.90
31369;DHT22;18004;48.416;10.066;2023-12-20T09:14:51;4.90;99.90
31369;DHT22;18004;48.416;10.066;2023-12-20T09:17:18;5.00;99.90
31369;DHT22;18004;48.416;10.066;2023-12-20T09:19:45;5.10;99.90
31369;DHT22;18004;48.416;10.066;2023-12-20T09:22:11;5.10;99.90
31369;DHT22;18004;48.416;10.066;2023-12-20T09:24:37;5.10;99.90
31369;DHT22;18004;48.416;10.066;2023-12-20T09:27:04;5.20;99.90
31369;DHT22;18004;48.416;10.066;2023-12-20T09:29:31;5.20;99.90
31369;DHT22;18004;48.416;10.066;2023-12-20T09:31:57;5.20;99.90
31369;DHT22;18004;48.416;10.066;2023-12-20T09:34:23;5.20;99.90
31369;DHT22;18004;48.416;10.066;2023-12-20T09:36:51;5.30;99.90
31369;DHT22;18004;48.416;10.066;2023-12-20T09:39:18;5.40;99.90
31369;DHT22;18004;48.416;10.066;2023-12-20T09:41:49;5.40;99.90
31369;DHT22;18004;48.416;10.066;2023-12-20T09:44:17;5.40;99.90
31369;DHT22;18004;48.416;10.066;2023-12-20T09:46:45;5.40;99.90
31369;DHT22;18004;48.416;10.066;2023-12-20T09:49:14;5.40;99.90
31369;DHT22;18004;48.416;10.066;2023-12-20T09:51:42;5.50;99.90
31369;DHT22;18004;48.416;10.066;2023-12-20T09:54:07;5.50;99.90
31369;DHT22;18004;48.416;10.066;2023-12-20T09:56:34;5.70;99.90
31369;DHT22;18004;48.416;10.066;2023-12-20T09:58:59;5.80;99.90
31369;DHT22;18004;48.416;10.066;2023-12-20T10:01:26;5.90;99.90
31369;DHT22;18004;48.416;10.066;2023-12-20T10:03:54;6.00;99.90
31369;DHT22;18004;48.416;10.066;2023-12-20T10:06:23;6.10;99.90
31369;DHT22;18004;48.416;10.066;2023-12-20T10:08:49;6.10;99.90
31369;DHT22;18004;48.416;10.066;2023-12-20T10:11:15;6.20;99.90
31369;DHT22;18004;48.416;10.066;2023-12-20T10:13:42;6.20;99.90
31369;DHT22;18004;48.416;10.066;2023-12-20T10:16:08;6.20;99.90
31369;DHT22;18004;48.416;10.066;2023-12-20T10:18:34;6.30;99.90
31369;DHT22;18004;48.416;10.066;2023-12-20T10:21:00;6.40;99.90
31369;DHT22;18004;48.416;10.066;2023-12-20T10:23:26;6.50;99.90
31369;DHT22;18004;48.416;10.066;2023-12-20T10:25:59;6.60;99.90
31369;DHT22;18004;48.416;10.066;2023-12-20T10:28:25;6.70;99.90
31369;DHT22;18004;48.416;10.066;2023-12-20T10:30:54;6.70;99.90
31369;DHT22;18004;48.416;10.066;2023-12-20T10:33:31;6.80;99.90
31369;DHT22;18004;48.416;10.066;2023-12-20T10:36:00;6.70;99.90
31369;DHT22;18004;48.416;10.066;2023-12-20T10:38:26;6.60;99.90
31369;DHT22;18004;48.416;10.066;2023-12-20T10:40:57;6.40;99.90
31369;DHT22;18004;48.416;10.066;2023-12-20T10:43:27;5.90;99.90
31369;DHT22;18004;48.416;10.066;2023-12-20T10:45:54;5.60;99.90
31369;DHT22;18004;48.416;10.066;2023-12-20T10:48:21;5.50;99.90
31369;DHT22;18004;48.416;10.066;2023-12-20T10:50:55;5.40;99.90
31369;DHT22;18004;48.416;10.066;2023-12-20T10:53:24;5.30;99.90
31369;DHT22;18004;48.416;10.066;2023-12-20T10:55:53;5.30;99.90
31369;DHT22;18004;48.416;10.066;2023-12-20T10:58:22;5.20;99.90
31369;DHT22;18004;48.416;10.066;2023-12-20T11:00:52;5.20;99.90
31369;DHT22;18004;48.416;10.066;2023-12-20T11:03:25;5.10;99.90
31369;DHT22;18004;48.416;10.066;2023-12-20T11:06:00;5.20;99.90
31369;DHT22;18004;48.416;10.066;2023-12-20T11:08:40;5.20;99.90
31369;DHT22;18004;48.416;10.066;2023-12-20T11:11:23;5.30;99.90
31369;DHT22;18004;48.416;10.066;2023-12-20T11:14:02;5.30;99.90
31369;DHT22;18004;48.416;10.066;2023-12-20T11:16:32;5.30;99.90
31369;DHT22;18004;48.416;10.066;2023-12-20T11:18:58;5.30;99.90
31369;DHT22;18004;48.416;10.066;2023-12-20T11:21:30;5.30;99.90
31369;DHT22;18004;48.416;10.066;2023-12-20T11:24:02;5.40;99.90
31369;DHT22;18004;48.416;10.066;2023-12-20T11:26:29;5.40;99.90
31369;DHT22;18004;48.416;10.066;2023-12-20T11:29:34;5.50;99.90
31369;DHT22;18004;48.416;10.066;2023-12-20T11:34:57;5.30;99.90
31369;DHT22;18004;48.416;10.066;2023-12-20T11:37:35;5.30;99.90
31369;DHT22;18004;48.416;10.066;2023-12-20T11:40:12;5.40;99.90
31369;DHT22;18004;48.416;10.066;2023-12-20T11:42:41;5.40;99.90
31369;DHT22;18004;48.416;10.066;2023-12-20T11:45:15;5.40;99.90
31369;DHT22;18004;48.416;10.066;2023-12-20T11:47:46;5.40;99.90
31369;DHT22;18004;48.416;10.066;2023-12-20T11:50:12;5.50;99.90
31369;DHT22;18004;48.416;10.066;2023-12-20T11:52:38;5.40;99.90
31369;DHT22;18004;48.416;10.066;2023-12-20T11:55:04;5.30;99.90
31369;DHT22;18004;48.416;10.066;2023-12-20T11:57:31;5.30;99.90
31369;DHT22;18004;48.416;10.066;2023-12-20T11:59:57;5.30;99.90
31369;DHT22;18004;48.416;10.066;2023-12-20T12:02:23;5.40;99.90
31369;DHT22;18004;48.416;10.066;2023-12-20T12:04:49;5.50;99.90
31369;DHT22;18004;48.416;10.066;2023-12-20T12:07:17;5.50;99.90
31369;DHT22;18004;48.416;10.066;2023-12-20T12:09:43;5.60;99.90
31369;DHT22;18004;48.416;10.066;2023-12-20T12:12:10;5.60;99.90
31369;DHT22;18004;48.416;10.066;2023-12-20T12:14:37;5.60;99.90
31369;DHT22;18004;48.416;10.066;2023-12-20T12:17:04;5.50;99.90
31369;DHT22;18004;48.416;10.066;2023-12-20T12:19:30;5.40;99.90
31369;DHT22;18004;48.416;10.066;2023-12-20T12:22:08;5.40;99.90
31369;DHT22;18004;48.416;10.066;2023-12-20T12:24:54;5.40;99.90
31369;DHT22;18004;48.416;10.066;2023-12-20T12:27:20;5.50;99.90
31369;DHT22;18004;48.416;10.066;2023-12-20T12:30:03;5.40;99.90
31369;DHT22;18004;48.416;10.066;2023-12-20T12:32:29;5.30;99.90
31369;DHT22;18004;48.416;10.066;2023-12-20T12:34:55;5.30;99.90
31369;DHT22;18004;48.416;10.066;2023-12-20T12:37:22;5.30;99.90
31369;DHT22;18004;48.416;10.066;2023-12-20T12:39:50;5.30;99.90
31369;DHT22;18004;48.416;10.066;2023-12-20T12:42:15;5.40;99.90
31369;DHT22;18004;48.416;10.066;2023-12-20T12:44:41;5.50;99.90
31369;DHT22;18004;48.416;10.066;2023-12-20T12:47:07;5.60;99.90
31369;DHT22;18004;48.416;10.066;2023-12-20T12:49:33;5.60;99.90
31369;DHT22;18004;48.416;10.066;2023-12-20T12:51:59;5.70;99.90
31369;DHT22;18004;48.416;10.066;2023-12-20T12:54:25;5.60;99.90
31369;DHT22;18004;48.416;10.066;2023-12-20T12:56:51;5.60;99.90
31369;DHT22;18004;48.416;10.066;2023-12-20T12:59:18;5.70;99.90
31369;DHT22;18004;48.416;10.066;2023-12-20T13:01:44;5.60;99.90
31369;DHT22;18004;48.416;10.066;2023-12-20T13:04:10;5.50;99.90
31369;DHT22;18004;48.416;10.066;2023-12-20T13:06:39;5.50;99.90
31369;DHT22;18004;48.416;10.066;2023-12-20T13:09:07;5.60;99.90
31369;DHT22;18004;48.416;10.066;2023-12-20T13:11:35;5.60;99.90
31369;DHT22;18004;48.416;10.066;2023-12-20T13:14:01;5.60;99.90
31369;DHT22;18004;48.416;10.066;2023-12-20T13:16:29;5.70;99.90
31369;DHT22;18004;48.416;10.066;2023-12-20T13:18:55;5.80;99.90
31369;DHT22;18004;48.416;10.066;2023-12-20T13:21:21;5.70;99.90
31369;DHT22;18004;48.416;10.066;2023-12-20T13:23:47;5.70;99.90
31369;DHT22;18004;48.416;10.066;2023-12-20T13:26:13;5.80;99.90
31369;DHT22;18004;48.416;10.066;2023-12-20T13:28:39;5.80;99.90
31369;DHT22;18004;48.416;10.066;2023-12-20T13:31:05;5.80;99.90
31369;DHT22;18004;48.416;10.066;2023-12-20T13:33:31;5.70;99.90
31369;DHT22;18004;48.416;10.066;2023-12-20T13:35:57;5.60;99.90
31369;DHT22;18004;48.416;10.066;2023-12-20T13:38:24;5.50;99.90
31369;DHT22;18004;48.416;10.066;2023-12-20T13:40:50;5.40;99.90
31369;DHT22;18004;48.416;10.066;2023-12-20T13:43:16;5.40;99.90
31369;DHT22;18004;48.416;10.066;2023-12-20T13:45:46;5.40;99.90
31369;DHT22;18004;48.416;10.066;2023-12-20T13:48:12;5.40;99.90
31369;DHT22;18004;48.416;10.066;2023-12-20T13:50:39;5.30;99.90
31369;DHT22;18004;48.416;10.066;2023-12-20T13:53:05;5.20;99.90
31369;DHT22;18004;48.416;10.066;2023-12-20T13:55:30;5.20;99.90
31369;DHT22;18004;48.416;10.066;2023-12-20T13:57:56;5.20;99.90
31369;DHT22;18004;48.416;10.066;2023-12-20T14:00:23;5.20;99.90
31369;DHT22;18004;48.416;10.066;2023-12-20T14:02:49;5.20;99.90
31369;DHT22;18004;48.416;10.066;2023-12-20T14:05:16;5.20;99.90
31369;DHT22;18004;48.416;10.066;2023-12-20T14:07:46;5.30;99.90
31369;DHT22;18004;48.416;10.066;2023-12-20T14:10:13;5.30;99.90
31369;DHT22;18004;48.416;10.066;2023-12-20T14:12:39;5.20;99.90
31369;DHT22;18004;48.416;10.066;2023-12-20T14:15:06;5.10;99.90
31369;DHT22;18004;48.416;10.066;2023-12-20T14:17:37;5.10;99.90
31369;DHT22;18004;48.416;10.066;2023-12-20T14:20:05;5.00;99.90
31369;DHT22;18004;48.416;10.066;2023-12-20T14:22:32;5.00;99.90
31369;DHT22;18004;48.416;10.066;2023-12-20T14:24:58;4.90;99.90
31369;DHT22;18004;48.416;10.066;2023-12-20T14:27:24;4.90;99.90
31369;DHT22;18004;48.416;10.066;2023-12-20T14:29:54;4.90;99.90
31369;DHT22;18004;48.416;10.066;2023-12-20T14:32:20;4.90;99.90
31369;DHT22;18004;48.416;10.066;2023-12-20T14:34:46;4.90;99.90
31369;DHT22;18004;48.416;10.066;2023-12-20T14:37:12;4.90;99.90
31369;DHT22;18004;48.416;10.066;2023-12-20T14:39:38;4.90;99.90
31369;DHT22;18004;48.416;10.066;2023-12-20T14:42:08;4.90;99.90
31369;DHT22;18004;48.416;10.066;2023-12-20T14:44:40;4.90;99.90
31369;DHT22;18004;48.416;10.066;2023-12-20T14:47:09;4.90;99.90
31369;DHT22;18004;48.416;10.066;2023-12-20T14:49:36;4.90;99.90
31369;DHT22;18004;48.416;10.066;2023-12-20T14:52:03;4.90;99.90
31369;DHT22;18004;48.416;10.066;2023-12-20T14:54:30;4.90;99.90
31369;DHT22;18004;48.416;10.066;2023-12-20T14:56:57;4.90;99.90
31369;DHT22;18004;48.416;10.066;2023-12-20T14:59:23;4.90;99.90
31369;DHT22;18004;48.416;10.066;2023-12-20T15:01:49;4.90;99.90
31369;DHT22;18004;48.416;10.066;2023-12-20T15:04:15;4.90;99.90
31369;DHT22;18004;48.416;10.066;2023-12-20T15:06:41;4.90;99.90
31369;DHT22;18004;48.416;10.066;2023-12-20T15:09:08;4.90;99.90
31369;DHT22;18004;48.416;10.066;2023-12-20T15:11:34;4.80;99.90
31369;DHT22;18004;48.416;10.066;2023-12-20T15:14:01;4.80;99.90
31369;DHT22;18004;48.416;10.066;2023-12-20T15:16:28;4.80;99.90
31369;DHT22;18004;48.416;10.066;2023-12-20T15:18:54;4.80;99.90
31369;DHT22;18004;48.416;10.066;2023-12-20T15:21:20;4.80;99.90
31369;DHT22;18004;48.416;10.066;2023-12-20T15:23:55;4.70;99.90
31369;DHT22;18004;48.416;10.066;2023-12-20T15:26:37;4.70;99.90
31369;DHT22;18004;48.416;10.066;2023-12-20T15:29:04;4.70;99.90
31369;DHT22;18004;48.416;10.066;2023-12-20T15:31:30;4.70;99.90